Genesee Depot, WI (53127)

10:39 AM CDT on May 05, 2015 (GMT -0500)
GENESEE | | Change Station
CLOSE
Current Station
Personal Weather Station
Location: GENESEE DEPOT, WI
Elevation: 931 ft
Nearby Weather Stations

Elev 931 ft 42.97 °N, 88.36 °W | Updated 42 seconds ago

Rain
Rain
49.1 °F
Feels Like 49 °F
N
1.0
Wind Variable Wind from East
Gusts 6.0 mph

Today
High -- | Low -- °F
--% Chance of Precip.
Yesterday
High -- | Low -- °F
Precip. -- in
5:42 AM 7:58 PM
Full, 98% visible
Pressure 30.28 in
Visibility 7.0 miles
Clouds Mostly Cloudy 3500 ft
Overcast 4300 ft
Windchill 49 °F
Dew Point 48 °F
Humidity 96%
Rainfall 0.33 in
Snow Depth Not available.
UV 1.0 out of 12
Pollen 6.60 out of 12
Air Quality Not available.
Flu Activity Local Activity
METAR KUES 051445Z 08010KT 7SM -RA BKN035 OVC043 09/08 A3028

More Conditions Fewer Conditions

Pressure 30.28 in
Visibility 7.0 miles
Clouds Mostly Cloudy 3500 ft
Overcast 4300 ft
Windchill 49 °F
Dew Point 48 °F
Humidity 96%
Rainfall 0.33 in
Snow Depth Not available.
UV 1.0 out of 12
Pollen 6.60 out of 12
Air Quality Not available.
Flu Activity Local Activity
METAR KUES 051445Z 08010KT 7SM -RA BKN035 OVC043 09/08 A3028

More Conditions Fewer Conditions

10-Day Weather Forecast

Almanac

Astronomy

May. 05, 2015 Rise Set
Actual Time
Civil Twilight
Nautical Twilight
Astronomical Twilight
Moon
Length of Visible Light
Length of Day
Tomorrow will be .
, % of the Moon is Illuminated

Today's Extremes

State Highs State Lows

Community

WunderPhotos

Upload Photos

1,818,918 photos uploaded!

WunderBlogs® & News

Nearby

Air Quality

  Air Quality AQ Index Pollutant
Not available.

Snow Depth

Station Depth Elevation

Earthquake Activity

City Distance Mag. Time & Date
Minimum magnitude displayed is 2.5.

Coastal Water Temperatures

Place Temperature

Stations

Nearby Weather Stations

Station Location Temp. Windchill Dew Point Humidity Wind Precip. Elev Updated Type